Terminal Aerodrome Forecast
Issued by NWS Jacksonville, FL

Home | Current Version | Previous Version | Text Only | Print | Product List | Glossary On
Versions: 1 2 3 4 5 6 7 8 9 10 11 12
000
FTUS42 KJAX 041120
TAFJAX
TAF
KJAX 041120Z 0412/0512 07004KT P6SM FEW060
     FM041400 08010G15KT P6SM SCT050
     FM041600 08015G23KT P6SM SCT050
     FM050100 06004KT P6SM SCT040=

USA.gov is the U.S. government's official web portal to all federal, state and local government web resources and services.